createdAt,value
2018-09-01T00:00:54.992Z,3.87
2018-09-01T00:03:23.392Z,3.37
2018-09-01T00:05:51.803Z,4.73
2018-09-01T00:08:21.632Z,4.80
2018-09-01T00:10:50.034Z,3.27
2018-09-01T00:13:18.390Z,4.77
2018-09-01T00:15:47.331Z,3.27
2018-09-01T00:18:15.998Z,3.20
2018-09-01T00:20:44.450Z,4.03
2018-09-01T00:23:13.138Z,3.53
2018-09-01T00:25:41.598Z,3.80
2018-09-01T00:28:10.392Z,4.33
2018-09-01T00:30:39.094Z,3.83
2018-09-01T00:33:07.875Z,4.70
2018-09-01T00:35:36.304Z,5.23
2018-09-01T00:38:09.966Z,4.53
2018-09-01T00:40:38.335Z,3.60
2018-09-01T00:43:07.060Z,2.73
2018-09-01T00:45:36.096Z,3.37
2018-09-01T00:48:04.447Z,3.80
2018-09-01T00:50:32.982Z,3.87
2018-09-01T00:53:01.632Z,5.03
2018-09-01T00:55:31.647Z,5.23
2018-09-01T00:58:00.274Z,3.60
2018-09-01T01:00:28.915Z,3.67
2018-09-01T01:02:57.871Z,4.43
2018-09-01T01:05:26.466Z,3.47
2018-09-01T01:07:56.927Z,3.77
2018-09-01T01:10:25.303Z,3.93
2018-09-01T01:12:53.650Z,3.97
2018-09-01T01:15:22.087Z,3.90
2018-09-01T01:17:50.467Z,4.23
2018-09-01T01:20:20.068Z,4.47
2018-09-01T01:22:48.427Z,4.00
2018-09-01T01:25:16.807Z,5.10
2018-09-01T01:27:45.292Z,3.83
2018-09-01T01:30:13.951Z,2.87
2018-09-01T01:32:42.895Z,4.37
2018-09-01T01:35:12.354Z,4.00
2018-09-01T01:37:40.794Z,4.03
2018-09-01T01:40:09.175Z,3.97
2018-09-01T01:42:37.831Z,2.97
2018-09-01T01:45:06.844Z,2.70
2018-09-01T01:47:42.311Z,3.40
2018-09-01T01:50:11.881Z,3.43
2018-09-01T01:52:40.562Z,3.50
2018-09-01T01:55:09.334Z,3.47
2018-09-01T01:57:42.935Z,3.33
2018-09-01T02:00:11.663Z,3.40
2018-09-01T02:02:40.315Z,2.33
2018-09-01T02:05:10.539Z,3.70
2018-09-01T02:07:40.186Z,3.10
2018-09-01T02:10:08.587Z,3.27
2018-09-01T02:12:37.263Z,3.53
2018-09-01T02:15:05.783Z,3.63
2018-09-01T02:17:34.507Z,3.03
2018-09-01T02:20:03.074Z,2.30
2018-09-01T02:22:32.364Z,2.43
2018-09-01T02:25:01.047Z,2.83
2018-09-01T02:27:30.043Z,2.30
2018-09-01T02:29:59.259Z,2.63
2018-09-01T02:32:27.960Z,2.70
2018-09-01T02:34:56.342Z,2.97
2018-09-01T02:37:25.266Z,2.77
2018-09-01T02:39:54.191Z,3.97
2018-09-01T02:42:23.183Z,3.70
2018-09-01T02:44:51.891Z,3.30
2018-09-01T02:47:20.879Z,3.90
2018-09-01T02:49:49.471Z,3.00
2018-09-01T02:52:18.103Z,3.20
2018-09-01T02:54:46.707Z,3.20
2018-09-01T02:57:17.370Z,3.80
2018-09-01T02:59:46.812Z,3.30
2018-09-01T03:02:21.129Z,2.70
2018-09-01T03:04:49.618Z,4.00
2018-09-01T03:07:18.291Z,3.40
2018-09-01T03:09:46.686Z,3.10
2018-09-01T03:12:15.350Z,3.17
2018-09-01T03:14:45.150Z,2.90
2018-09-01T03:17:14.148Z,3.00
2018-09-01T03:19:42.510Z,3.10
2018-09-01T03:22:11.102Z,3.50
2018-09-01T03:24:40.043Z,3.43
2018-09-01T03:27:08.734Z,2.70
2018-09-01T03:29:37.224Z,3.10
2018-09-01T03:32:05.879Z,3.23
2018-09-01T03:34:34.517Z,3.20
2018-09-01T03:37:03.350Z,2.23
2018-09-01T03:39:31.747Z,2.97
2018-09-01T03:42:00.743Z,3.67
2018-09-01T03:44:29.654Z,3.70
2018-09-01T03:46:58.047Z,3.70
2018-09-01T03:49:26.455Z,3.17
2018-09-01T03:51:54.856Z,3.37
2018-09-01T03:54:23.262Z,4.40
2018-09-01T03:56:51.625Z,3.90
2018-09-01T03:59:20.614Z,3.53
2018-09-01T04:01:49.249Z,3.83
2018-09-01T04:04:17.903Z,4.63
2018-09-01T04:06:46.268Z,3.50
2018-09-01T04:09:14.639Z,4.80
2018-09-01T04:11:42.990Z,2.80
2018-09-01T04:14:11.602Z,3.47
2018-09-01T04:16:40.727Z,2.60
2018-09-01T04:19:18.014Z,2.77
2018-09-01T04:21:48.243Z,4.20
2018-09-01T04:24:16.818Z,3.00
2018-09-01T04:26:46.411Z,4.60
2018-09-01T04:29:15.946Z,4.80
2018-09-01T04:31:44.605Z,3.83
2018-09-01T04:34:13.071Z,3.17
2018-09-01T04:36:41.463Z,4.00
2018-09-01T04:39:11.488Z,3.73
2018-09-01T04:41:40.263Z,3.13
2018-09-01T04:44:08.659Z,3.60
2018-09-01T04:46:37.239Z,3.40
2018-09-01T04:49:05.598Z,3.93
2018-09-01T04:51:34.267Z,3.43
2018-09-01T04:54:02.962Z,3.50
2018-09-01T04:56:31.674Z,4.00
2018-09-01T04:59:00.672Z,4.30
2018-09-01T05:01:29.571Z,5.43
2018-09-01T05:03:58.182Z,5.87
2018-09-01T05:06:26.551Z,3.37
2018-09-01T05:08:54.923Z,3.20
2018-09-01T05:11:23.761Z,3.77
2018-09-01T05:13:52.651Z,2.63
2018-09-01T05:16:21.314Z,3.17
2018-09-01T05:18:50.187Z,3.37
2018-09-01T05:21:19.530Z,4.03
2018-09-01T05:23:48.261Z,3.67
2018-09-01T05:26:16.587Z,3.00
2018-09-01T05:28:45.019Z,3.87
2018-09-01T05:31:13.390Z,4.27
2018-09-01T05:33:42.074Z,3.30
2018-09-01T05:36:10.715Z,3.00
2018-09-01T05:38:39.418Z,3.77
2018-09-01T05:41:08.084Z,3.63
2018-09-01T05:43:36.470Z,4.33
2018-09-01T05:46:05.035Z,3.53
2018-09-01T05:48:33.390Z,4.07
2018-09-01T05:51:02.523Z,3.90
2018-09-01T05:53:30.891Z,3.17
2018-09-01T05:55:59.795Z,4.80
2018-09-01T05:58:33.233Z,3.23
2018-09-01T06:01:03.958Z,4.37
2018-09-01T06:03:38.285Z,3.20
2018-09-01T06:06:08.481Z,3.50
2018-09-01T06:08:36.831Z,3.60
2018-09-01T06:11:05.278Z,3.97
2018-09-01T06:13:33.655Z,3.47
2018-09-01T06:16:02.074Z,3.53
2018-09-01T06:18:30.829Z,3.73
2018-09-01T06:20:59.226Z,3.43
2018-09-01T06:23:27.658Z,4.07
2018-09-01T06:25:56.506Z,4.00
2018-09-01T06:28:29.046Z,4.53
2018-09-01T06:30:57.838Z,4.30
2018-09-01T06:33:26.307Z,4.67
2018-09-01T06:35:54.943Z,3.00
2018-09-01T06:38:23.315Z,3.30
2018-09-01T06:40:51.950Z,3.80
2018-09-01T06:43:20.335Z,3.40
2018-09-01T06:45:48.742Z,2.50
2018-09-01T06:48:17.435Z,2.40
2018-09-01T06:50:45.805Z,3.33
2018-09-01T06:53:14.526Z,3.20
2018-09-01T06:55:43.190Z,2.60
2018-09-01T06:58:11.803Z,3.50
2018-09-01T07:00:40.766Z,3.27
2018-09-01T07:03:08.865Z,3.50
2018-09-01T07:05:37.358Z,2.77
2018-09-01T07:08:05.726Z,2.87
2018-09-01T07:10:34.390Z,2.60
2018-09-01T07:13:02.756Z,2.10
2018-09-01T07:15:31.132Z,3.20
2018-09-01T07:18:00.110Z,2.40
2018-09-01T07:20:28.734Z,2.33
2018-09-01T07:22:57.938Z,2.50
2018-09-01T07:25:26.346Z,2.63
2018-09-01T07:27:54.726Z,2.43
2018-09-01T07:30:23.237Z,2.53
2018-09-01T07:32:51.471Z,2.87
2018-09-01T07:35:20.073Z,1.67
2018-09-01T07:37:48.467Z,2.07
2018-09-01T07:40:16.823Z,1.57
2018-09-01T07:42:45.450Z,2.40
2018-09-01T07:45:14.475Z,4.40
2018-09-01T07:47:43.179Z,1.97
2018-09-01T07:50:11.960Z,1.93
2018-09-01T07:52:40.568Z,2.80
2018-09-01T07:55:09.286Z,1.53
2018-09-01T07:57:37.660Z,1.77
2018-09-01T08:00:06.663Z,1.87
2018-09-01T08:02:35.036Z,1.73
2018-09-01T08:05:04.007Z,1.63
2018-09-01T08:07:32.755Z,2.57
2018-09-01T08:10:02.042Z,2.07
2018-09-01T08:12:30.972Z,2.00
2018-09-01T08:14:59.330Z,1.93
2018-09-01T08:17:27.692Z,1.40
2018-09-01T08:19:55.845Z,1.57
2018-09-01T08:22:24.228Z,1.20
2018-09-01T08:24:52.594Z,1.80
2018-09-01T08:27:20.682Z,1.30
2018-09-01T08:29:49.538Z,1.77
2018-09-01T08:32:17.643Z,1.20
2018-09-01T08:34:46.094Z,1.20
2018-09-01T08:37:14.476Z,1.70
2018-09-01T08:39:42.886Z,0.90
2018-09-01T08:42:11.321Z,1.10
2018-09-01T08:44:39.702Z,2.23
2018-09-01T08:47:08.343Z,1.10
2018-09-01T08:49:36.770Z,1.10
2018-09-01T08:52:05.456Z,0.97
2018-09-01T08:54:34.115Z,0.93
2018-09-01T08:57:03.018Z,0.90
2018-09-01T08:59:31.382Z,1.30
2018-09-01T09:02:00.347Z,1.00
2018-09-01T09:04:28.955Z,1.10
2018-09-01T09:06:57.655Z,0.73
2018-09-01T09:09:26.078Z,0.87
2018-09-01T09:11:54.759Z,1.60
2018-09-01T09:14:23.638Z,1.30
2018-09-01T09:16:52.323Z,1.30
2018-09-01T09:19:20.699Z,1.10
2018-09-01T09:21:49.306Z,0.80
2018-09-01T09:24:17.970Z,1.13
2018-09-01T09:26:46.378Z,1.33
2018-09-01T09:29:14.790Z,0.87
2018-09-01T09:31:43.442Z,0.80
2018-09-01T09:34:12.067Z,1.30
2018-09-01T09:36:40.438Z,1.43
2018-09-01T09:39:10.106Z,1.30
2018-09-01T09:41:38.802Z,0.60
2018-09-01T09:44:07.396Z,1.23
2018-09-01T09:46:35.893Z,0.93
2018-09-01T09:49:04.423Z,0.93
2018-09-01T09:51:33.610Z,0.77
2018-09-01T09:54:02.092Z,0.90
2018-09-01T09:56:30.790Z,1.20
2018-09-01T09:58:59.206Z,1.00
2018-09-01T10:01:28.895Z,1.10
2018-09-01T10:03:57.666Z,0.90
2018-09-01T10:06:26.542Z,0.83
2018-09-01T10:08:55.219Z,0.80
2018-09-01T10:11:23.922Z,0.90
2018-09-01T10:13:52.270Z,0.80
2018-09-01T10:16:20.875Z,0.90
2018-09-01T10:18:49.250Z,1.00
2018-09-01T10:21:17.967Z,0.97
2018-09-01T10:23:46.567Z,1.00
2018-09-01T10:26:15.238Z,0.70
2018-09-01T10:28:43.938Z,1.13
2018-09-01T10:31:12.626Z,0.97
2018-09-01T10:33:40.811Z,0.90
2018-09-01T10:36:11.350Z,0.90
2018-09-01T10:38:40.276Z,0.67
2018-09-01T10:41:08.907Z,0.70
2018-09-01T10:43:37.866Z,0.60
2018-09-01T10:46:06.909Z,0.90
2018-09-01T10:48:35.575Z,0.97
2018-09-01T10:51:04.302Z,1.47
2018-09-01T10:53:32.908Z,1.47
2018-09-01T10:56:01.310Z,1.30
2018-09-01T10:58:29.926Z,0.87
2018-09-01T11:01:00.522Z,1.20
2018-09-01T11:03:28.591Z,0.87
2018-09-01T11:05:57.538Z,0.80
2018-09-01T11:08:26.210Z,1.00
2018-09-01T11:10:55.282Z,1.20
2018-09-01T11:13:23.915Z,1.30
2018-09-01T11:15:52.612Z,0.80
2018-09-01T11:18:20.982Z,1.00
2018-09-01T11:20:49.634Z,1.10
2018-09-01T11:23:18.007Z,0.90
2018-09-01T11:25:46.655Z,1.23
2018-09-01T11:28:15.827Z,0.90
2018-09-01T11:30:44.258Z,1.00
2018-09-01T11:33:12.695Z,1.00
2018-09-01T11:35:41.107Z,1.00
2018-09-01T11:38:10.468Z,0.70
2018-09-01T11:40:38.833Z,0.70
2018-09-01T11:43:07.683Z,1.03
2018-09-01T11:45:35.842Z,0.93
2018-09-01T11:48:04.491Z,0.80
2018-09-01T11:50:32.875Z,1.17
2018-09-01T11:53:01.559Z,1.07
2018-09-01T11:55:30.293Z,1.03
2018-09-01T11:57:58.663Z,1.00
2018-09-01T12:00:27.018Z,0.97
2018-09-01T12:02:55.380Z,0.83
2018-09-01T12:05:23.762Z,0.97
2018-09-01T12:07:52.376Z,0.80
2018-09-01T12:10:21.013Z,1.03
2018-09-01T12:12:49.854Z,0.60
2018-09-01T12:15:18.260Z,1.10
2018-09-01T12:17:46.797Z,0.87
2018-09-01T12:20:15.187Z,1.20
2018-09-01T12:22:43.587Z,0.87
2018-09-01T12:25:12.262Z,0.97
2018-09-01T12:27:40.939Z,1.40
2018-09-01T12:30:09.579Z,1.10
2018-09-01T12:32:37.930Z,1.03
2018-09-01T12:35:06.647Z,0.97
2018-09-01T12:37:35.335Z,1.30
2018-09-01T12:40:04.273Z,1.17
2018-09-01T12:42:33.654Z,0.70
2018-09-01T12:45:02.054Z,0.90
2018-09-01T12:47:31.023Z,0.90
2018-09-01T12:49:59.418Z,1.07
2018-09-01T12:52:28.061Z,0.60
2018-09-01T12:54:56.415Z,0.97
2018-09-01T12:57:25.058Z,1.20
2018-09-01T12:59:53.498Z,0.93
2018-09-01T13:02:24.094Z,0.93
2018-09-01T13:04:53.562Z,1.10
2018-09-01T13:07:22.191Z,0.80
2018-09-01T13:09:50.627Z,1.40
2018-09-01T13:12:18.990Z,0.73
2018-09-01T13:14:47.345Z,1.13
2018-09-01T13:17:16.002Z,0.83
2018-09-01T13:19:45.396Z,0.90
2018-09-01T13:22:13.998Z,0.90
2018-09-01T13:24:42.378Z,1.27
2018-09-01T13:27:10.776Z,1.20
2018-09-01T13:29:39.451Z,0.80
2018-09-01T13:32:08.411Z,1.17
2018-09-01T13:34:37.115Z,0.70
2018-09-01T13:37:07.574Z,0.90
2018-09-01T13:39:35.946Z,1.23
2018-09-01T13:42:05.136Z,1.17
2018-09-01T13:44:33.794Z,0.80
2018-09-01T13:47:02.414Z,0.97
2018-09-01T13:49:31.098Z,0.80
2018-09-01T13:52:00.089Z,1.07
2018-09-01T13:54:28.558Z,0.70
2018-09-01T13:56:57.298Z,0.70
2018-09-01T13:59:26.283Z,1.10
2018-09-01T14:01:55.902Z,1.00
2018-09-01T14:04:24.271Z,1.03
2018-09-01T14:06:52.922Z,0.80
2018-09-01T14:09:21.278Z,0.90
2018-09-01T14:11:50.071Z,0.90
2018-09-01T14:14:19.262Z,0.87
2018-09-01T14:16:47.641Z,1.13
2018-09-01T14:19:16.102Z,1.07
2018-09-01T14:21:44.578Z,0.70
2018-09-01T14:24:12.958Z,1.73
2018-09-01T14:26:41.366Z,0.90
2018-09-01T14:29:10.039Z,0.80
2018-09-01T14:31:39.078Z,1.10
2018-09-01T14:34:07.982Z,0.90
2018-09-01T14:36:37.242Z,1.10
2018-09-01T14:39:08.842Z,0.80
2018-09-01T14:41:37.314Z,0.80
2018-09-01T14:44:06.310Z,0.70
2018-09-01T14:46:34.972Z,1.10
2018-09-01T14:49:03.623Z,0.93
2018-09-01T14:51:32.230Z,1.07
2018-09-01T14:54:01.195Z,0.83
2018-09-01T14:56:29.746Z,0.80
2018-09-01T14:58:58.150Z,1.07
2018-09-01T15:01:26.502Z,0.70
2018-09-01T15:03:55.166Z,0.70
2018-09-01T15:06:23.555Z,1.00
2018-09-01T15:08:52.442Z,0.77
2018-09-01T15:11:21.098Z,1.00
2018-09-01T15:13:49.783Z,0.73
2018-09-01T15:16:18.154Z,0.80
2018-09-01T15:18:46.658Z,1.30
2018-09-01T15:21:15.023Z,0.80
2018-09-01T15:23:43.395Z,1.07
2018-09-01T15:26:11.767Z,1.20
2018-09-01T15:28:40.276Z,0.90
2018-09-01T15:31:08.851Z,1.07
2018-09-01T15:33:37.237Z,1.07
2018-09-01T15:36:05.635Z,0.80
2018-09-01T15:38:34.246Z,0.97
2018-09-01T15:41:02.944Z,0.90
2018-09-01T15:43:31.567Z,0.90
2018-09-01T15:45:59.955Z,0.70
2018-09-01T15:48:28.330Z,1.03
2018-09-01T15:50:57.017Z,1.47
2018-09-01T15:53:25.361Z,0.97
2018-09-01T15:55:54.294Z,0.97
2018-09-01T15:58:22.679Z,0.70
2018-09-01T16:00:51.731Z,1.00
2018-09-01T16:03:20.130Z,1.10
2018-09-01T16:05:48.766Z,1.00
2018-09-01T16:08:17.595Z,0.70
2018-09-01T16:10:46.246Z,0.80
2018-09-01T16:13:15.158Z,1.00
2018-09-01T16:15:43.522Z,2.40
2018-09-01T16:18:12.124Z,0.80
2018-09-01T16:20:41.175Z,0.80
2018-09-01T16:23:09.905Z,1.10
2018-09-01T16:25:39.182Z,0.87
2018-09-01T16:28:07.606Z,1.10
2018-09-01T16:30:36.290Z,0.80
2018-09-01T16:33:05.574Z,0.90
2018-09-01T16:35:34.195Z,1.20
2018-09-01T16:38:02.903Z,0.97
2018-09-01T16:40:31.304Z,1.23
2018-09-01T16:42:59.719Z,0.60
2018-09-01T16:45:28.067Z,1.37
2018-09-01T16:47:56.488Z,0.80
2018-09-01T16:50:24.855Z,1.00
2018-09-01T16:52:53.558Z,0.97
2018-09-01T16:55:21.910Z,1.10
2018-09-01T16:57:50.281Z,0.90
2018-09-01T17:00:19.474Z,0.90
2018-09-01T17:02:48.355Z,0.97
2018-09-01T17:05:16.991Z,0.90
2018-09-01T17:07:45.337Z,0.60
2018-09-01T17:10:13.782Z,0.93
2018-09-01T17:12:42.496Z,0.90
2018-09-01T17:15:11.210Z,1.00
2018-09-01T17:17:39.570Z,0.70
2018-09-01T17:20:08.538Z,0.77
2018-09-01T17:22:38.122Z,0.83
2018-09-01T17:25:06.911Z,0.80
2018-09-01T17:27:35.294Z,1.10
2018-09-01T17:30:03.682Z,1.00
2018-09-01T17:32:32.027Z,1.10
2018-09-01T17:35:01.571Z,1.00
2018-09-01T17:37:30.774Z,1.10
2018-09-01T17:39:59.142Z,0.70
2018-09-01T17:42:28.483Z,0.90
2018-09-01T17:44:57.359Z,0.67
2018-09-01T17:47:25.727Z,1.00
2018-09-01T17:49:54.347Z,0.60
2018-09-01T17:52:22.686Z,1.10
2018-09-01T17:54:51.355Z,0.50
2018-09-01T17:57:19.825Z,0.97
2018-09-01T17:59:48.450Z,1.00
2018-09-01T18:02:17.733Z,0.80
2018-09-01T18:04:46.419Z,0.90
2018-09-01T18:07:15.612Z,1.67
2018-09-01T18:09:44.418Z,0.90
2018-09-01T18:12:12.755Z,0.90
2018-09-01T18:14:42.015Z,0.90
2018-09-01T18:17:10.711Z,0.70
2018-09-01T18:19:39.394Z,0.93
2018-09-01T18:22:08.234Z,1.00
2018-09-01T18:24:36.918Z,0.90
2018-09-01T18:27:06.154Z,0.80
2018-09-01T18:29:34.564Z,1.40
2018-09-01T18:32:02.936Z,1.00
2018-09-01T18:34:31.562Z,1.20
2018-09-01T18:37:00.270Z,1.03
2018-09-01T18:39:28.678Z,0.90
2018-09-01T18:41:57.119Z,1.23
2018-09-01T18:44:25.539Z,1.03
2018-09-01T18:46:54.476Z,0.87
2018-09-01T18:49:23.106Z,1.00
2018-09-01T18:51:52.037Z,1.10
2018-09-01T18:54:20.526Z,1.07
2018-09-01T18:56:49.171Z,0.80
2018-09-01T18:59:17.902Z,0.90
2018-09-01T19:01:46.286Z,1.03
2018-09-01T19:04:16.106Z,1.20
2018-09-01T19:06:44.854Z,0.77
2018-09-01T19:09:13.478Z,0.80
2018-09-01T19:11:42.082Z,1.30
2018-09-01T19:14:10.538Z,1.10
2018-09-01T19:16:39.226Z,1.07
2018-09-01T19:19:07.679Z,1.10
2018-09-01T19:21:36.358Z,1.00
2018-09-01T19:24:04.781Z,0.80
2018-09-01T19:26:33.439Z,1.00
2018-09-01T19:29:02.078Z,1.13
2018-09-01T19:31:30.708Z,0.90
2018-09-01T19:33:59.112Z,1.40
2018-09-01T19:36:27.818Z,0.70
2018-09-01T19:38:56.580Z,0.83
2018-09-01T19:41:25.182Z,0.80
2018-09-01T19:43:53.830Z,1.00
2018-09-01T19:46:22.190Z,1.97
2018-09-01T19:48:51.403Z,1.17
2018-09-01T19:51:20.207Z,0.80
2018-09-01T19:53:49.390Z,1.20
2018-09-01T19:56:17.751Z,0.90
2018-09-01T19:58:46.115Z,1.30
2018-09-01T20:01:15.358Z,1.23
2018-09-01T20:03:44.334Z,1.53
2018-09-01T20:06:13.022Z,1.17
2018-09-01T20:08:41.391Z,1.00
2018-09-01T20:11:09.781Z,1.20
2018-09-01T20:13:38.274Z,1.40
2018-09-01T20:16:06.690Z,0.90
2018-09-01T20:18:35.324Z,1.53
2018-09-01T20:21:04.071Z,1.57
2018-09-01T20:23:32.488Z,1.50
2018-09-01T20:26:01.175Z,0.97
2018-09-01T20:28:30.067Z,0.90
2018-09-01T20:31:04.983Z,1.37
2018-09-01T20:33:33.346Z,1.40
2018-09-01T20:36:02.027Z,1.20
2018-09-01T20:38:30.995Z,2.17
2018-09-01T20:40:59.366Z,1.07
2018-09-01T20:43:27.801Z,1.60
2018-09-01T20:45:56.190Z,1.67
2018-09-01T20:48:25.077Z,1.20
2018-09-01T20:50:53.465Z,1.70
2018-09-01T20:53:21.886Z,1.10
2018-09-01T20:55:50.519Z,0.90
2018-09-01T20:58:18.882Z,0.70
2018-09-01T21:00:48.606Z,1.00
2018-09-01T21:03:17.745Z,1.80
2018-09-01T21:05:46.124Z,0.90
2018-09-01T21:08:14.487Z,1.50
2018-09-01T21:10:43.096Z,0.97
2018-09-01T21:13:11.558Z,1.70
2018-09-01T21:15:39.963Z,0.90
2018-09-01T21:18:08.363Z,0.90
2018-09-01T21:20:36.714Z,1.43
2018-09-01T21:23:05.412Z,1.10
2018-09-01T21:25:34.130Z,1.17
2018-09-01T21:28:03.019Z,1.00
2018-09-01T21:30:31.677Z,1.20
2018-09-01T21:33:00.391Z,1.60
2018-09-01T21:35:28.830Z,1.27
2018-09-01T21:37:57.243Z,1.17
2018-09-01T21:40:26.152Z,0.90
2018-09-01T21:42:54.531Z,1.30
2018-09-01T21:45:22.895Z,1.00
2018-09-01T21:47:51.314Z,1.20
2018-09-01T21:50:19.718Z,1.27
2018-09-01T21:52:48.091Z,1.27
2018-09-01T21:55:16.458Z,1.60
2018-09-01T21:57:45.167Z,1.20
2018-09-01T22:00:14.214Z,1.03
2018-09-01T22:02:42.595Z,1.30
2018-09-01T22:05:18.338Z,1.30
2018-09-01T22:07:47.921Z,1.10
2018-09-01T22:10:16.318Z,1.27
2018-09-01T22:12:44.711Z,1.40
2018-09-01T22:15:13.382Z,1.07
2018-09-01T22:17:41.768Z,1.63
2018-09-01T22:20:10.151Z,1.40
2018-09-01T22:22:38.810Z,1.23
2018-09-01T22:25:07.554Z,0.93
2018-09-01T22:27:35.911Z,1.63
2018-09-01T22:30:04.881Z,1.20
2018-09-01T22:32:33.492Z,1.33
2018-09-01T22:35:02.102Z,1.30
2018-09-01T22:37:30.727Z,1.00
2018-09-01T22:39:59.091Z,1.27
2018-09-01T22:42:28.678Z,1.47
2018-09-01T22:44:57.390Z,1.17
2018-09-01T22:47:28.937Z,1.00
2018-09-01T22:49:57.314Z,1.03
2018-09-01T22:52:26.612Z,1.40
2018-09-01T22:54:55.436Z,1.90
2018-09-01T22:57:24.605Z,1.17
2018-09-01T22:59:53.186Z,1.00
2018-09-01T23:02:22.382Z,2.00
2018-09-01T23:04:51.583Z,1.40
2018-09-01T23:07:19.947Z,1.37
2018-09-01T23:09:48.853Z,1.13
2018-09-01T23:12:17.243Z,0.80
2018-09-01T23:14:46.167Z,1.40
2018-09-01T23:17:14.812Z,1.23
2018-09-01T23:19:43.177Z,1.47
2018-09-01T23:22:11.534Z,1.40
2018-09-01T23:24:40.562Z,1.93
2018-09-01T23:27:08.928Z,1.40
2018-09-01T23:29:37.514Z,1.10
2018-09-01T23:32:06.506Z,1.37
2018-09-01T23:34:35.199Z,1.43
2018-09-01T23:37:04.406Z,1.70
2018-09-01T23:39:33.382Z,1.10
2018-09-01T23:42:02.075Z,1.10
2018-09-01T23:44:31.174Z,1.00
2018-09-01T23:46:59.823Z,1.60
2018-09-01T23:49:28.659Z,1.00
2018-09-01T23:51:57.046Z,1.50
2018-09-01T23:54:25.706Z,1.20
2018-09-01T23:56:54.093Z,1.50
2018-09-01T23:59:22.452Z,1.70
